createdAt,value
2023-05-05T00:00:26.722Z,65.70
2023-05-05T00:02:55.601Z,66.77
2023-05-05T00:05:23.947Z,65.95
2023-05-05T00:07:52.943Z,65.70
2023-05-05T00:10:19.430Z,65.90
2023-05-05T00:12:48.391Z,66.87
2023-05-05T00:15:18.690Z,66.12
2023-05-05T00:17:47.849Z,66.63
2023-05-05T00:20:17.586Z,66.96
2023-05-05T00:22:44.028Z,66.05
2023-05-05T00:25:10.510Z,66.08
2023-05-05T00:27:40.805Z,65.84
2023-05-05T00:30:08.219Z,65.98
2023-05-05T00:32:34.931Z,65.99
2023-05-05T00:35:01.428Z,66.24
2023-05-05T00:37:28.229Z,66.62
2023-05-05T00:39:57.101Z,66.37
2023-05-05T00:42:26.654Z,66.99
2023-05-05T00:44:53.161Z,67.36
2023-05-05T00:47:19.986Z,68.63
2023-05-05T00:49:46.521Z,70.82
2023-05-05T00:52:13.092Z,72.22
2023-05-05T00:54:40.242Z,71.91
2023-05-05T00:57:09.423Z,71.70
2023-05-05T00:59:39.584Z,71.53
2023-05-05T01:02:09.076Z,72.32
2023-05-05T01:04:37.824Z,71.77
2023-05-05T01:07:28.822Z,72.27
2023-05-05T01:10:38.209Z,71.28
2023-05-05T01:13:42.756Z,71.42
2023-05-05T01:16:19.235Z,70.40
2023-05-05T01:19:16.877Z,70.85
2023-05-05T01:21:48.419Z,70.39
2023-05-05T01:24:33.536Z,71.05
2023-05-05T01:26:59.960Z,70.87
2023-05-05T01:29:47.887Z,70.96
2023-05-05T01:32:19.936Z,71.42
2023-05-05T01:35:04.353Z,71.08
2023-05-05T01:37:38.169Z,71.49
2023-05-05T01:40:10.501Z,72.60
2023-05-05T01:42:41.083Z,72.69
2023-05-05T01:45:11.546Z,72.44
2023-05-05T01:47:40.260Z,72.30
2023-05-05T01:50:10.693Z,72.19
2023-05-05T01:52:40.150Z,72.69
2023-05-05T01:55:08.794Z,72.61
2023-05-05T01:57:37.611Z,72.96
2023-05-05T02:00:07.711Z,73.93
2023-05-05T02:02:36.113Z,74.21
2023-05-05T02:05:05.149Z,74.67
2023-05-05T02:07:35.744Z,74.55
2023-05-05T02:10:09.249Z,74.39
2023-05-05T02:12:39.722Z,74.08
2023-05-05T02:15:10.419Z,74.39
2023-05-05T02:17:39.988Z,74.35
2023-05-05T02:20:08.271Z,74.46
2023-05-05T02:22:34.924Z,74.43
2023-05-05T02:25:01.514Z,74.67
2023-05-05T02:27:28.682Z,75.10
2023-05-05T02:30:01.843Z,75.62
2023-05-05T02:32:36.476Z,76.15
2023-05-05T02:35:24.422Z,76.66
2023-05-05T02:38:01.901Z,77.44
2023-05-05T02:40:36.432Z,77.91
2023-05-05T02:43:14.813Z,78.19
2023-05-05T02:45:41.663Z,78.20
2023-05-05T02:48:08.293Z,78.50
2023-05-05T02:50:34.892Z,78.44
2023-05-05T02:53:01.930Z,77.84
2023-05-05T02:55:36.957Z,78.64
2023-05-05T02:58:21.745Z,78.68
2023-05-05T03:00:56.662Z,79.11
2023-05-05T03:03:58.641Z,79.31
2023-05-05T03:06:27.328Z,79.63
2023-05-05T03:09:07.944Z,79.85
2023-05-05T03:12:02.015Z,80.14
2023-05-05T03:14:35.976Z,80.48
2023-05-05T03:17:03.216Z,80.82
2023-05-05T03:19:33.430Z,80.86
2023-05-05T03:22:00.709Z,81.38
2023-05-05T03:24:29.519Z,81.50
2023-05-05T03:26:58.246Z,82.04
2023-05-05T03:29:25.412Z,82.06
2023-05-05T03:31:52.157Z,82.17
2023-05-05T03:34:21.004Z,82.61
2023-05-05T03:36:50.147Z,83.13
2023-05-05T03:39:19.026Z,83.36
2023-05-05T03:41:45.632Z,83.40
2023-05-05T03:44:12.067Z,83.47
2023-05-05T03:46:39.017Z,83.79
2023-05-05T03:49:05.535Z,83.59
2023-05-05T03:51:32.118Z,83.81
2023-05-05T03:53:58.681Z,84.00
2023-05-05T03:56:27.592Z,83.99
2023-05-05T03:58:56.315Z,84.00
2023-05-05T04:01:23.498Z,84.14
2023-05-05T04:03:55.236Z,84.30
2023-05-05T04:06:24.426Z,84.30
2023-05-05T04:08:53.251Z,84.36
2023-05-05T04:11:20.159Z,84.41
2023-05-05T04:13:46.748Z,84.36
2023-05-05T04:16:15.853Z,84.47
2023-05-05T04:18:42.353Z,84.84
2023-05-05T04:21:11.143Z,84.91
2023-05-05T04:23:40.110Z,85.08
2023-05-05T04:26:06.732Z,85.21
2023-05-05T04:28:33.174Z,85.25
2023-05-05T04:31:01.088Z,85.34
2023-05-05T04:33:27.615Z,84.87
2023-05-05T04:35:56.461Z,85.22
2023-05-05T04:38:25.852Z,85.51
2023-05-05T04:40:57.125Z,85.36
2023-05-05T04:43:23.700Z,85.47
2023-05-05T04:45:57.806Z,85.67
2023-05-05T04:48:29.139Z,85.64
2023-05-05T04:50:55.614Z,85.59
2023-05-05T04:53:24.189Z,85.74
2023-05-05T04:55:52.981Z,85.58
2023-05-05T04:58:21.763Z,85.29
2023-05-05T05:00:50.772Z,82.27
2023-05-05T05:03:19.834Z,77.96
2023-05-05T05:05:51.194Z,74.11
2023-05-05T05:08:18.135Z,71.65
2023-05-05T05:10:45.114Z,69.09
2023-05-05T05:13:12.880Z,67.67
2023-05-05T05:15:42.329Z,66.21
2023-05-05T05:18:11.146Z,65.24
2023-05-05T05:20:37.649Z,64.06
2023-05-05T05:23:06.570Z,62.30
2023-05-05T05:25:35.278Z,60.48
2023-05-05T05:28:10.157Z,59.38
2023-05-05T05:30:39.849Z,58.61
2023-05-05T05:33:06.766Z,58.31
2023-05-05T05:35:33.305Z,57.10
2023-05-05T05:37:59.750Z,56.30
2023-05-05T05:40:33.433Z,55.41
2023-05-05T05:42:59.925Z,55.57
2023-05-05T05:45:26.360Z,54.73
2023-05-05T05:47:54.891Z,54.24
2023-05-05T05:50:27.085Z,53.30
2023-05-05T05:52:55.864Z,53.57
2023-05-05T05:55:22.656Z,54.58
2023-05-05T05:57:49.111Z,53.96
2023-05-05T06:00:20.719Z,53.78
2023-05-05T06:02:51.325Z,53.10
2023-05-05T06:05:20.428Z,52.35
2023-05-05T06:07:51.771Z,53.62
2023-05-05T06:10:27.994Z,53.42
2023-05-05T06:12:59.860Z,53.96
2023-05-05T06:15:28.553Z,53.91
2023-05-05T06:17:57.452Z,53.43
2023-05-05T06:20:26.294Z,51.97
2023-05-05T06:22:55.125Z,50.96
2023-05-05T06:25:22.058Z,49.77
2023-05-05T06:27:50.869Z,50.33
2023-05-05T06:30:19.978Z,49.61
2023-05-05T06:32:46.470Z,47.69
2023-05-05T06:35:17.484Z,47.05
2023-05-05T06:37:44.341Z,45.84
2023-05-05T06:40:11.280Z,46.06
2023-05-05T06:42:40.504Z,47.35
2023-05-05T06:45:07.613Z,46.10
2023-05-05T06:47:34.559Z,46.14
2023-05-05T06:50:03.826Z,46.13
2023-05-05T06:52:32.520Z,45.19
2023-05-05T06:54:59.018Z,46.17
2023-05-05T06:57:25.944Z,43.79
2023-05-05T06:59:54.036Z,43.39
2023-05-05T07:02:26.957Z,43.49
2023-05-05T07:04:55.736Z,42.76
2023-05-05T07:07:24.714Z,42.47
2023-05-05T07:09:53.453Z,43.22
2023-05-05T07:12:22.156Z,45.88
2023-05-05T07:14:51.012Z,48.05
2023-05-05T07:17:17.834Z,50.08
2023-05-05T07:19:46.437Z,50.60
2023-05-05T07:22:12.952Z,51.96
2023-05-05T07:24:39.501Z,51.92
2023-05-05T07:27:08.502Z,52.15
2023-05-05T07:29:37.494Z,51.94
2023-05-05T07:32:06.246Z,51.13
2023-05-05T07:34:34.346Z,49.58
2023-05-05T07:37:00.970Z,50.60
2023-05-05T07:39:32.073Z,46.74
2023-05-05T07:42:03.482Z,46.22
2023-05-05T07:44:32.282Z,45.37
2023-05-05T07:46:58.808Z,45.82
2023-05-05T07:49:26.782Z,44.65
2023-05-05T07:51:53.293Z,43.86
2023-05-05T07:54:22.161Z,43.81
2023-05-05T07:56:48.638Z,44.82
2023-05-05T07:59:15.116Z,44.35
2023-05-05T08:01:42.069Z,45.15
2023-05-05T08:04:13.933Z,42.82
2023-05-05T08:06:40.608Z,43.59
2023-05-05T08:09:07.666Z,42.58
2023-05-05T08:11:36.606Z,41.89
2023-05-05T08:14:03.083Z,40.57
2023-05-05T08:16:36.927Z,40.43
2023-05-05T08:19:14.550Z,42.50
2023-05-05T08:21:47.918Z,44.44
2023-05-05T08:24:14.408Z,44.32
2023-05-05T08:26:43.114Z,43.65
2023-05-05T08:29:09.588Z,41.93
2023-05-05T08:31:39.683Z,42.46
2023-05-05T08:34:06.801Z,42.25
2023-05-05T08:36:35.555Z,41.56
2023-05-05T08:39:02.102Z,41.37
2023-05-05T08:41:31.212Z,44.58
2023-05-05T08:44:00.050Z,42.97
2023-05-05T08:46:31.007Z,45.33
2023-05-05T08:49:00.484Z,46.64
2023-05-05T08:51:38.292Z,47.02
2023-05-05T08:54:06.959Z,48.00
2023-05-05T08:56:39.474Z,49.60
2023-05-05T08:59:06.837Z,49.16
2023-05-05T09:01:36.170Z,49.28
2023-05-05T09:04:05.292Z,51.19
2023-05-05T09:06:33.772Z,51.30
2023-05-05T09:09:01.236Z,52.27
2023-05-05T09:11:28.075Z,52.74
2023-05-05T09:13:57.496Z,54.64
2023-05-05T09:16:24.151Z,55.67
2023-05-05T09:19:01.232Z,54.36
2023-05-05T09:21:31.193Z,55.27
2023-05-05T09:24:13.132Z,54.65
2023-05-05T09:26:47.026Z,54.47
2023-05-05T09:29:23.232Z,56.62
2023-05-05T09:32:10.135Z,56.13
2023-05-05T09:34:37.372Z,55.89
2023-05-05T09:37:04.162Z,56.25
2023-05-05T09:39:30.741Z,56.83
2023-05-05T09:41:59.353Z,54.05
2023-05-05T09:44:41.219Z,53.62
2023-05-05T09:47:18.027Z,55.84
2023-05-05T09:50:00.796Z,55.55
2023-05-05T09:52:27.841Z,55.22
2023-05-05T09:54:58.030Z,55.84
2023-05-05T09:57:34.102Z,56.13
2023-05-05T10:00:04.393Z,56.19
2023-05-05T10:02:33.020Z,55.72
2023-05-05T10:05:07.284Z,55.75
2023-05-05T10:07:37.293Z,55.61
2023-05-05T10:10:06.024Z,55.42
2023-05-05T10:12:37.752Z,56.04
2023-05-05T10:15:06.239Z,58.16
2023-05-05T10:17:39.099Z,58.83
2023-05-05T10:20:09.657Z,58.42
2023-05-05T10:22:41.771Z,58.06
2023-05-05T10:25:21.471Z,56.82
2023-05-05T10:27:52.859Z,56.00
2023-05-05T10:30:49.090Z,58.93
2023-05-05T10:33:31.751Z,61.06
2023-05-05T10:36:05.270Z,67.46
2023-05-05T10:38:32.950Z,71.38
2023-05-05T10:41:00.063Z,70.52
2023-05-05T10:43:28.443Z,72.92
2023-05-05T10:45:55.686Z,74.01
2023-05-05T10:48:32.962Z,74.32
2023-05-05T10:51:17.027Z,73.99
2023-05-05T10:54:03.120Z,73.50
2023-05-05T10:56:34.878Z,75.78
2023-05-05T10:59:23.854Z,76.16
2023-05-05T11:01:52.033Z,77.43
2023-05-05T11:04:23.015Z,78.26
2023-05-05T11:07:27.010Z,78.24
2023-05-05T11:09:58.949Z,80.42
2023-05-05T11:12:27.663Z,80.86
2023-05-05T11:15:28.129Z,80.60
2023-05-05T11:17:58.831Z,81.72
2023-05-05T11:20:39.528Z,82.65
2023-05-05T11:23:06.296Z,82.75
2023-05-05T11:25:44.654Z,83.25
2023-05-05T11:28:19.833Z,84.95
2023-05-05T11:30:55.827Z,85.40
2023-05-05T11:33:25.947Z,85.84
2023-05-05T11:35:59.629Z,85.82
2023-05-05T11:39:11.101Z,85.82
2023-05-05T11:41:37.523Z,86.38
2023-05-05T11:44:10.767Z,86.34
2023-05-05T11:46:41.414Z,86.59
2023-05-05T11:49:12.532Z,86.41
2023-05-05T11:51:41.804Z,86.83
2023-05-05T11:54:11.023Z,86.67
2023-05-05T11:56:50.074Z,86.31
2023-05-05T11:59:20.034Z,86.19
2023-05-05T12:01:46.647Z,86.57
2023-05-05T12:04:14.583Z,86.92
2023-05-05T12:06:42.193Z,86.43
2023-05-05T12:09:19.966Z,86.50
2023-05-05T12:11:52.959Z,86.06
2023-05-05T12:14:20.492Z,87.05
2023-05-05T12:16:56.313Z,87.20
2023-05-05T12:19:29.797Z,87.31
2023-05-05T12:21:59.046Z,87.76
2023-05-05T12:24:30.293Z,87.70
2023-05-05T12:27:14.439Z,88.04
2023-05-05T12:29:43.160Z,87.90
2023-05-05T12:32:18.879Z,88.18
2023-05-05T12:34:45.576Z,88.15
2023-05-05T12:37:15.642Z,87.82
2023-05-05T12:39:47.027Z,88.35
2023-05-05T12:42:15.797Z,88.00
2023-05-05T12:44:44.869Z,87.74
2023-05-05T12:47:12.597Z,88.16
2023-05-05T12:50:05.414Z,88.30
2023-05-05T12:52:45.237Z,87.96
2023-05-05T12:55:12.633Z,87.71
2023-05-05T12:58:01.349Z,88.20
2023-05-05T13:00:30.419Z,87.79
2023-05-05T13:02:57.110Z,87.40
2023-05-05T13:05:34.053Z,88.39
2023-05-05T13:08:00.624Z,88.08
2023-05-05T13:10:31.159Z,87.28
2023-05-05T13:12:58.452Z,87.67
2023-05-05T13:15:28.335Z,87.70
2023-05-05T13:18:06.059Z,87.87
2023-05-05T13:20:34.861Z,86.94
2023-05-05T13:23:04.750Z,87.27
2023-05-05T13:25:33.647Z,86.41
2023-05-05T13:28:02.403Z,87.10
2023-05-05T13:30:28.870Z,87.06
2023-05-05T13:32:55.410Z,87.20
2023-05-05T13:35:21.932Z,87.05
2023-05-05T13:37:48.505Z,87.76
2023-05-05T13:40:15.370Z,87.46
2023-05-05T13:42:41.912Z,87.51
2023-05-05T13:45:08.982Z,88.37
2023-05-05T13:47:38.491Z,88.40
2023-05-05T13:50:08.002Z,87.83
2023-05-05T13:52:34.449Z,87.79
2023-05-05T13:55:03.194Z,88.11
2023-05-05T13:57:29.647Z,88.09
2023-05-05T14:00:01.530Z,88.65
2023-05-05T14:02:28.091Z,87.88
2023-05-05T14:04:54.576Z,87.70
2023-05-05T14:07:23.415Z,87.48
2023-05-05T14:09:52.336Z,87.56
2023-05-05T14:12:18.832Z,88.25
2023-05-05T14:14:45.365Z,87.98
2023-05-05T14:17:14.215Z,87.64
2023-05-05T14:19:40.751Z,87.86
2023-05-05T14:22:11.852Z,87.41
2023-05-05T14:24:40.680Z,88.06
2023-05-05T14:27:12.078Z,87.49
2023-05-05T14:29:40.824Z,87.27
2023-05-05T14:32:07.391Z,85.60
2023-05-05T14:34:33.872Z,85.75
2023-05-05T14:37:01.288Z,84.32
2023-05-05T14:39:27.815Z,83.89
2023-05-05T14:41:54.280Z,84.35
2023-05-05T14:44:20.842Z,83.58
2023-05-05T14:46:51.116Z,85.45
2023-05-05T14:49:20.053Z,84.47
2023-05-05T14:51:46.499Z,84.67
2023-05-05T14:54:26.975Z,83.72
2023-05-05T14:56:58.326Z,83.01
2023-05-05T14:59:24.918Z,84.69
2023-05-05T15:01:54.066Z,85.45
2023-05-05T15:04:20.652Z,85.85
2023-05-05T15:06:49.325Z,85.53
2023-05-05T15:09:18.069Z,84.99
2023-05-05T15:11:45.479Z,83.89
2023-05-05T15:14:14.245Z,82.97
2023-05-05T15:16:43.029Z,83.78
2023-05-05T15:19:11.898Z,83.07
2023-05-05T15:21:38.371Z,83.60
2023-05-05T15:24:07.501Z,83.68
2023-05-05T15:26:36.637Z,85.12
2023-05-05T15:29:03.176Z,85.13
2023-05-05T15:31:29.719Z,86.15
2023-05-05T15:33:56.391Z,85.41
2023-05-05T15:36:24.985Z,86.75
2023-05-05T15:38:51.558Z,86.84
2023-05-05T15:41:20.526Z,87.12
2023-05-05T15:43:47.008Z,85.97
2023-05-05T15:46:15.745Z,85.15
2023-05-05T15:48:42.274Z,82.85
2023-05-05T15:51:11.155Z,81.97
2023-05-05T15:53:37.620Z,82.92
2023-05-05T15:56:08.997Z,82.97
2023-05-05T15:58:37.833Z,82.85
2023-05-05T16:01:04.359Z,83.82
2023-05-05T16:03:31.101Z,83.80
2023-05-05T16:06:00.253Z,84.86
2023-05-05T16:08:26.898Z,84.69
2023-05-05T16:10:53.456Z,84.10
2023-05-05T16:13:20.085Z,83.81
2023-05-05T16:15:51.313Z,85.66
2023-05-05T16:18:20.170Z,85.46
2023-05-05T16:20:46.913Z,86.33
2023-05-05T16:23:13.566Z,86.11
2023-05-05T16:25:42.528Z,84.60
2023-05-05T16:28:13.627Z,83.28
2023-05-05T16:30:42.721Z,80.94
2023-05-05T16:33:11.852Z,82.68
2023-05-05T16:35:38.502Z,82.39
2023-05-05T16:38:04.978Z,82.11
2023-05-05T16:40:36.325Z,81.24
2023-05-05T16:43:10.047Z,81.38
2023-05-05T16:45:36.485Z,81.31
2023-05-05T16:48:03.179Z,79.05
2023-05-05T16:50:32.372Z,80.73
2023-05-05T16:53:01.041Z,79.99
2023-05-05T16:55:30.043Z,78.30
2023-05-05T16:57:58.722Z,77.40
2023-05-05T17:00:25.282Z,78.74
2023-05-05T17:02:56.276Z,78.49
2023-05-05T17:05:25.280Z,78.42
2023-05-05T17:07:54.134Z,79.65
2023-05-05T17:10:25.397Z,79.11
2023-05-05T17:12:53.024Z,79.06
2023-05-05T17:15:19.632Z,79.22
2023-05-05T17:17:48.525Z,79.68
2023-05-05T17:20:17.572Z,80.08
2023-05-05T17:22:46.429Z,80.92
2023-05-05T17:25:15.477Z,81.36
2023-05-05T17:27:42.049Z,80.82
2023-05-05T17:30:11.848Z,80.63
2023-05-05T17:32:40.971Z,81.21
2023-05-05T17:35:08.127Z,81.09
2023-05-05T17:37:37.751Z,80.85
2023-05-05T17:40:05.358Z,80.54
2023-05-05T17:42:34.723Z,80.17
2023-05-05T17:45:01.462Z,79.98
2023-05-05T17:47:30.606Z,79.11
2023-05-05T17:49:59.637Z,80.10
2023-05-05T17:52:28.447Z,81.07
2023-05-05T17:54:57.317Z,81.70
2023-05-05T17:57:23.785Z,81.74
2023-05-05T17:59:51.860Z,81.59
2023-05-05T18:02:19.012Z,82.01
2023-05-05T18:04:48.054Z,82.33
2023-05-05T18:07:14.626Z,82.74
2023-05-05T18:09:46.111Z,82.88
2023-05-05T18:12:17.537Z,82.84
2023-05-05T18:14:44.046Z,82.89
2023-05-05T18:17:10.491Z,83.02
2023-05-05T18:19:37.975Z,82.21
2023-05-05T18:22:04.453Z,80.84
2023-05-05T18:24:31.800Z,80.29
2023-05-05T18:26:58.639Z,80.22
2023-05-05T18:29:25.456Z,82.70
2023-05-05T18:31:54.716Z,82.38
2023-05-05T18:34:23.733Z,83.39
2023-05-05T18:36:54.273Z,84.28
2023-05-05T18:39:23.637Z,84.44
2023-05-05T18:41:50.292Z,84.58
2023-05-05T18:44:17.946Z,85.29
2023-05-05T18:46:46.950Z,85.35
2023-05-05T18:49:18.174Z,86.20
2023-05-05T18:51:44.726Z,86.30
2023-05-05T18:54:11.316Z,86.23
2023-05-05T18:56:40.647Z,86.14
2023-05-05T18:59:07.755Z,86.97
2023-05-05T19:01:34.296Z,87.78
2023-05-05T19:04:03.398Z,88.26
2023-05-05T19:06:34.689Z,88.58
2023-05-05T19:09:03.995Z,88.51
2023-05-05T19:11:30.521Z,88.65
2023-05-05T19:13:57.140Z,88.63
2023-05-05T19:16:23.650Z,88.53
2023-05-05T19:18:50.200Z,88.71
2023-05-05T19:21:16.736Z,89.44
2023-05-05T19:23:43.245Z,89.97
2023-05-05T19:26:11.606Z,90.15
2023-05-05T19:28:40.280Z,90.06
2023-05-05T19:31:12.172Z,89.38
2023-05-05T19:33:42.266Z,89.65
2023-05-05T19:36:11.008Z,89.99
2023-05-05T19:38:37.513Z,90.48
2023-05-05T19:41:03.993Z,90.41
2023-05-05T19:43:34.986Z,90.34
2023-05-05T19:46:06.401Z,90.86
2023-05-05T19:48:33.029Z,90.63
2023-05-05T19:51:04.187Z,90.56
2023-05-05T19:53:31.082Z,90.69
2023-05-05T19:55:57.749Z,91.09
2023-05-05T19:58:24.230Z,90.98
2023-05-05T20:00:50.901Z,90.90
2023-05-05T20:03:19.767Z,90.78
2023-05-05T20:05:48.859Z,90.89
2023-05-05T20:08:15.328Z,90.87
2023-05-05T20:10:46.516Z,91.12
2023-05-05T20:13:16.158Z,91.21
2023-05-05T20:15:43.245Z,90.86
2023-05-05T20:18:09.729Z,90.71
2023-05-05T20:20:38.645Z,90.89
2023-05-05T20:23:07.594Z,90.91
2023-05-05T20:25:36.844Z,91.29
2023-05-05T20:28:05.540Z,91.43
2023-05-05T20:30:34.390Z,91.72
2023-05-05T20:33:01.042Z,91.93
2023-05-05T20:35:27.608Z,92.19
2023-05-05T20:37:58.667Z,92.07
2023-05-05T20:40:27.519Z,92.21
2023-05-05T20:42:56.286Z,92.28
2023-05-05T20:45:22.800Z,92.07
2023-05-05T20:47:51.654Z,92.13
2023-05-05T20:50:20.289Z,91.97
2023-05-05T20:52:47.562Z,92.13
2023-05-05T20:55:14.053Z,92.20
2023-05-05T20:57:42.851Z,92.07
2023-05-05T21:00:12.506Z,92.10
2023-05-05T21:02:39.294Z,92.55
2023-05-05T21:05:06.595Z,92.60
2023-05-05T21:07:34.180Z,92.81
2023-05-05T21:10:02.215Z,92.97
2023-05-05T21:12:29.225Z,92.83
2023-05-05T21:14:59.563Z,92.91
2023-05-05T21:17:27.075Z,92.73
2023-05-05T21:19:58.439Z,93.04
2023-05-05T21:22:25.101Z,92.87
2023-05-05T21:24:51.549Z,92.95
2023-05-05T21:27:18.288Z,92.89
2023-05-05T21:29:44.762Z,93.14
2023-05-05T21:32:11.863Z,93.26
2023-05-05T21:34:39.222Z,93.33
2023-05-05T21:37:06.765Z,93.57
2023-05-05T21:39:35.494Z,93.55
2023-05-05T21:42:02.057Z,93.59
2023-05-05T21:44:33.446Z,93.84
2023-05-05T21:46:59.872Z,94.08
2023-05-05T21:49:26.379Z,94.26
2023-05-05T21:51:52.839Z,94.09
2023-05-05T21:54:21.538Z,94.25
2023-05-05T21:56:48.147Z,94.08
2023-05-05T21:59:16.540Z,94.13
2023-05-05T22:01:43.832Z,93.99
2023-05-05T22:04:12.853Z,93.77
2023-05-05T22:06:39.395Z,93.76
2023-05-05T22:09:05.850Z,93.72
2023-05-05T22:11:32.305Z,93.70
2023-05-05T22:14:01.843Z,93.85
2023-05-05T22:16:30.867Z,93.71
2023-05-05T22:18:59.887Z,93.78
2023-05-05T22:21:28.911Z,93.86
2023-05-05T22:23:55.412Z,94.00
2023-05-05T22:26:21.916Z,93.95
2023-05-05T22:28:48.516Z,94.04
2023-05-05T22:31:17.483Z,94.35
2023-05-05T22:33:48.608Z,94.32
2023-05-05T22:36:17.559Z,94.58
2023-05-05T22:38:46.501Z,94.80
2023-05-05T22:41:16.002Z,95.08
2023-05-05T22:43:44.887Z,95.30
2023-05-05T22:46:15.071Z,95.44
2023-05-05T22:48:41.576Z,95.48
2023-05-05T22:51:08.099Z,95.69
2023-05-05T22:53:34.594Z,95.51
2023-05-05T22:56:01.116Z,95.55
2023-05-05T22:58:27.946Z,95.64
2023-05-05T23:00:54.402Z,95.75
2023-05-05T23:03:20.900Z,95.92
2023-05-05T23:05:49.672Z,95.86
2023-05-05T23:08:16.138Z,95.78
2023-05-05T23:10:42.633Z,95.66
2023-05-05T23:13:09.426Z,95.84
2023-05-05T23:15:38.996Z,96.10
2023-05-05T23:18:10.285Z,95.92
2023-05-05T23:20:36.738Z,95.87
2023-05-05T23:23:05.776Z,95.98
2023-05-05T23:25:32.266Z,95.91
2023-05-05T23:28:01.067Z,95.75
2023-05-05T23:30:27.513Z,95.65
2023-05-05T23:32:54.848Z,95.57
2023-05-05T23:35:23.948Z,95.51
2023-05-05T23:37:50.483Z,95.24
2023-05-05T23:40:17.017Z,95.11
2023-05-05T23:42:43.436Z,95.09
2023-05-05T23:45:12.619Z,94.88
2023-05-05T23:47:41.769Z,95.16
2023-05-05T23:50:11.002Z,94.98
2023-05-05T23:52:39.940Z,95.38
2023-05-05T23:55:10.373Z,95.65
2023-05-05T23:57:39.587Z,95.81
